createdAt,value
2023-04-05T00:00:00.000Z,6.84
2023-04-05T00:15:00.000Z,7.12
2023-04-05T00:30:00.000Z,8.64
2023-04-05T00:45:00.000Z,8.65
2023-04-05T01:00:00.000Z,8.15
2023-04-05T01:15:00.000Z,7.28
2023-04-05T01:30:00.000Z,7.38
2023-04-05T01:45:00.000Z,8.05
2023-04-05T02:00:00.000Z,8.16
2023-04-05T02:15:00.000Z,8.78
2023-04-05T02:30:00.000Z,8.79
2023-04-05T02:45:00.000Z,8.82
2023-04-05T03:00:00.000Z,7.92
2023-04-05T03:15:00.000Z,7.66
2023-04-05T03:30:00.000Z,7.54
2023-04-05T03:45:00.000Z,8.34
2023-04-05T04:00:00.000Z,9.87
2023-04-05T04:15:00.000Z,10.08
2023-04-05T04:30:00.000Z,9.74
2023-04-05T04:45:00.000Z,10.47
2023-04-05T05:00:00.000Z,11.02
2023-04-05T05:15:00.000Z,11.09
2023-04-05T05:30:00.000Z,15.6
2023-04-05T05:45:00.000Z,10.08
2023-04-05T06:00:00.000Z,9.61
2023-04-05T06:15:00.000Z,9.91
2023-04-05T06:30:00.000Z,8.19
2023-04-05T06:45:00.000Z,7.64
2023-04-05T07:00:00.000Z,7.45
2023-04-05T07:15:00.000Z,7.67
2023-04-05T07:30:00.000Z,8.31
2023-04-05T07:45:00.000Z,8.75
2023-04-05T08:00:00.000Z,8.94
2023-04-05T08:15:00.000Z,9
2023-04-05T08:30:00.000Z,8.19
2023-04-05T08:45:00.000Z,8.02
2023-04-05T09:00:00.000Z,8.16
2023-04-05T09:15:00.000Z,8.53
2023-04-05T09:30:00.000Z,8.15
2023-04-05T09:45:00.000Z,8.29
2023-04-05T10:00:00.000Z,7.99
2023-04-05T10:15:00.000Z,7.82
2023-04-05T10:30:00.000Z,7.36
2023-04-05T10:45:00.000Z,7.2
2023-04-05T11:00:00.000Z,7.14
2023-04-05T11:15:00.000Z,6.98
2023-04-05T11:30:00.000Z,7.99
2023-04-05T11:45:00.000Z,7.55
2023-04-05T12:00:00.000Z,7.02
2023-04-05T12:15:00.000Z,7.28
2023-04-05T12:30:00.000Z,7.39
2023-04-05T12:45:00.000Z,7.31
2023-04-05T13:00:00.000Z,7.61
2023-04-05T13:15:00.000Z,7.34
2023-04-05T13:30:00.000Z,7.53
2023-04-05T13:45:00.000Z,8.09
2023-04-05T14:00:00.000Z,8.05
2023-04-05T14:15:00.000Z,7.38
2023-04-05T14:30:00.000Z,7.34
2023-04-05T14:45:00.000Z,7.34
2023-04-05T15:00:00.000Z,7.95
2023-04-05T15:15:00.000Z,7.47
2023-04-05T15:30:00.000Z,7.24
2023-04-05T15:45:00.000Z,7.53
2023-04-05T16:00:00.000Z,7.65
2023-04-05T16:15:00.000Z,8.04
2023-04-05T16:30:00.000Z,8.19
2023-04-05T16:45:00.000Z,10.02
2023-04-05T17:00:00.000Z,8.34
2023-04-05T17:15:00.000Z,8.84
2023-04-05T17:30:00.000Z,8.58
2023-04-05T17:45:00.000Z,9.66
2023-04-05T18:00:00.000Z,10.19
2023-04-05T18:15:00.000Z,9.52
2023-04-05T18:30:00.000Z,9.05
2023-04-05T18:45:00.000Z,8.64
2023-04-05T19:00:00.000Z,8.87
2023-04-05T19:15:00.000Z,8.76
2023-04-05T19:30:00.000Z,8.46
2023-04-05T19:45:00.000Z,10.59
2023-04-05T20:00:00.000Z,7.86
2023-04-05T20:15:00.000Z,10.11
2023-04-05T20:30:00.000Z,13.47
2023-04-05T20:45:00.000Z,15.53
2023-04-05T21:00:00.000Z,11.49
2023-04-05T21:15:00.000Z,11.47
2023-04-05T21:30:00.000Z,12.05
2023-04-05T21:45:00.000Z,12.52
2023-04-05T22:00:00.000Z,12.89
2023-04-05T22:15:00.000Z,12.74
2023-04-05T22:30:00.000Z,12.2
2023-04-05T22:45:00.000Z,13.92
2023-04-05T23:00:00.000Z,13.8
2023-04-05T23:15:00.000Z,13.14
2023-04-05T23:30:00.000Z,11.82
2023-04-05T23:45:00.000Z,11.15
